sensor_id;sensor_type;location;lat;lon;timestamp;P1;durP1;ratioP1;P2;durP2;ratioP2
35909;SDS011;22004;49.120;-0.200;2022-09-17T00:01:55;2.38;;;1.10;;
35909;SDS011;22004;49.120;-0.200;2022-09-17T00:04:20;1.20;;;0.80;;
35909;SDS011;22004;49.120;-0.200;2022-09-17T00:06:46;1.88;;;0.82;;
35909;SDS011;22004;49.120;-0.200;2022-09-17T00:09:11;2.13;;;0.80;;
35909;SDS011;22004;49.120;-0.200;2022-09-17T00:11:38;1.98;;;0.70;;
35909;SDS011;22004;49.120;-0.200;2022-09-17T00:14:05;1.92;;;1.10;;
35909;SDS011;22004;49.120;-0.200;2022-09-17T00:16:35;1.27;;;0.80;;
35909;SDS011;22004;49.120;-0.200;2022-09-17T00:19:03;1.25;;;0.80;;
35909;SDS011;22004;49.120;-0.200;2022-09-17T00:21:30;1.40;;;0.90;;
35909;SDS011;22004;49.120;-0.200;2022-09-17T00:23:56;1.50;;;1.00;;
35909;SDS011;22004;49.120;-0.200;2022-09-17T00:26:23;2.75;;;1.08;;
35909;SDS011;22004;49.120;-0.200;2022-09-17T00:28:50;1.52;;;0.80;;
35909;SDS011;22004;49.120;-0.200;2022-09-17T00:31:19;1.52;;;1.00;;
35909;SDS011;22004;49.120;-0.200;2022-09-17T00:33:45;3.40;;;1.00;;
35909;SDS011;22004;49.120;-0.200;2022-09-17T00:36:11;1.58;;;0.90;;
35909;SDS011;22004;49.120;-0.200;2022-09-17T00:38:36;1.77;;;0.85;;
35909;SDS011;22004;49.120;-0.200;2022-09-17T00:41:02;2.22;;;1.10;;
35909;SDS011;22004;49.120;-0.200;2022-09-17T00:43:39;5.88;;;0.93;;
35909;SDS011;22004;49.120;-0.200;2022-09-17T00:46:16;2.85;;;1.15;;
35909;SDS011;22004;49.120;-0.200;2022-09-17T00:51:26;3.33;;;1.10;;
35909;SDS011;22004;49.120;-0.200;2022-09-17T00:53:57;2.80;;;1.00;;
35909;SDS011;22004;49.120;-0.200;2022-09-17T00:56:26;1.20;;;0.88;;
35909;SDS011;22004;49.120;-0.200;2022-09-17T00:58:55;1.02;;;0.80;;
35909;SDS011;22004;49.120;-0.200;2022-09-17T01:01:22;2.25;;;0.80;;
35909;SDS011;22004;49.120;-0.200;2022-09-17T01:03:47;1.38;;;0.90;;
35909;SDS011;22004;49.120;-0.200;2022-09-17T01:14:14;1.20;;;1.00;;
35909;SDS011;22004;49.120;-0.200;2022-09-17T01:33:23;1.37;;;1.00;;
35909;SDS011;22004;49.120;-0.200;2022-09-17T01:38:36;1.35;;;0.75;;
35909;SDS011;22004;49.120;-0.200;2022-09-17T01:44:34;2.28;;;1.20;;
35909;SDS011;22004;49.120;-0.200;2022-09-17T01:47:10;1.58;;;0.95;;
35909;SDS011;22004;49.120;-0.200;2022-09-17T01:49:40;2.72;;;0.98;;
35909;SDS011;22004;49.120;-0.200;2022-09-17T01:52:06;4.18;;;1.10;;
35909;SDS011;22004;49.120;-0.200;2022-09-17T01:54:45;2.58;;;1.00;;
35909;SDS011;22004;49.120;-0.200;2022-09-17T01:57:18;2.35;;;0.85;;
35909;SDS011;22004;49.120;-0.200;2022-09-17T02:00:00;4.32;;;1.00;;
35909;SDS011;22004;49.120;-0.200;2022-09-17T02:02:31;1.10;;;0.85;;
35909;SDS011;22004;49.120;-0.200;2022-09-17T02:05:10;2.85;;;0.93;;
35909;SDS011;22004;49.120;-0.200;2022-09-17T02:07:50;2.05;;;0.90;;
35909;SDS011;22004;49.120;-0.200;2022-09-17T02:10:21;2.45;;;0.98;;
35909;SDS011;22004;49.120;-0.200;2022-09-17T02:13:07;1.77;;;1.00;;
35909;SDS011;22004;49.120;-0.200;2022-09-17T02:15:39;2.80;;;1.13;;
35909;SDS011;22004;49.120;-0.200;2022-09-17T02:18:27;1.75;;;0.90;;
35909;SDS011;22004;49.120;-0.200;2022-09-17T02:21:02;1.33;;;1.00;;
35909;SDS011;22004;49.120;-0.200;2022-09-17T02:23:35;2.05;;;0.65;;
35909;SDS011;22004;49.120;-0.200;2022-09-17T02:26:11;2.50;;;0.88;;
35909;SDS011;22004;49.120;-0.200;2022-09-17T02:28:46;2.03;;;1.00;;
35909;SDS011;22004;49.120;-0.200;2022-09-17T02:31:15;1.08;;;0.90;;
35909;SDS011;22004;49.120;-0.200;2022-09-17T02:33:42;1.17;;;0.80;;
35909;SDS011;22004;49.120;-0.200;2022-09-17T02:36:10;2.83;;;1.00;;
35909;SDS011;22004;49.120;-0.200;2022-09-17T02:38:37;2.50;;;0.90;;
35909;SDS011;22004;49.120;-0.200;2022-09-17T02:41:24;1.38;;;0.80;;
35909;SDS011;22004;49.120;-0.200;2022-09-17T02:54:49;1.63;;;0.82;;
35909;SDS011;22004;49.120;-0.200;2022-09-17T02:57:32;1.63;;;0.80;;
35909;SDS011;22004;49.120;-0.200;2022-09-17T03:00:06;2.00;;;0.75;;
35909;SDS011;22004;49.120;-0.200;2022-09-17T03:02:49;1.33;;;0.80;;
35909;SDS011;22004;49.120;-0.200;2022-09-17T03:05:18;1.98;;;0.80;;
35909;SDS011;22004;49.120;-0.200;2022-09-17T03:07:45;2.65;;;0.80;;
35909;SDS011;22004;49.120;-0.200;2022-09-17T03:10:12;1.20;;;0.70;;
35909;SDS011;22004;49.120;-0.200;2022-09-17T03:12:38;1.38;;;0.80;;
35909;SDS011;22004;49.120;-0.200;2022-09-17T03:15:03;2.05;;;0.90;;
35909;SDS011;22004;49.120;-0.200;2022-09-17T03:17:30;1.42;;;0.80;;
35909;SDS011;22004;49.120;-0.200;2022-09-17T03:19:56;2.25;;;0.90;;
35909;SDS011;22004;49.120;-0.200;2022-09-17T03:22:22;2.20;;;0.82;;
35909;SDS011;22004;49.120;-0.200;2022-09-17T03:24:47;0.77;;;0.77;;
35909;SDS011;22004;49.120;-0.200;2022-09-17T03:27:12;1.15;;;0.80;;
35909;SDS011;22004;49.120;-0.200;2022-09-17T03:29:38;1.40;;;0.70;;
35909;SDS011;22004;49.120;-0.200;2022-09-17T03:32:03;1.00;;;0.88;;
35909;SDS011;22004;49.120;-0.200;2022-09-17T03:34:29;1.40;;;0.80;;
35909;SDS011;22004;49.120;-0.200;2022-09-17T03:36:55;1.98;;;0.93;;
35909;SDS011;22004;49.120;-0.200;2022-09-17T03:39:20;2.80;;;0.70;;
35909;SDS011;22004;49.120;-0.200;2022-09-17T03:41:45;0.70;;;0.70;;
35909;SDS011;22004;49.120;-0.200;2022-09-17T03:44:11;1.77;;;0.90;;
35909;SDS011;22004;49.120;-0.200;2022-09-17T03:46:36;1.38;;;0.70;;
35909;SDS011;22004;49.120;-0.200;2022-09-17T03:49:02;3.30;;;0.90;;
35909;SDS011;22004;49.120;-0.200;2022-09-17T03:51:27;5.88;;;0.80;;
35909;SDS011;22004;49.120;-0.200;2022-09-17T03:53:53;1.10;;;0.70;;
35909;SDS011;22004;49.120;-0.200;2022-09-17T03:56:18;3.85;;;0.90;;
35909;SDS011;22004;49.120;-0.200;2022-09-17T03:58:44;2.13;;;0.90;;
35909;SDS011;22004;49.120;-0.200;2022-09-17T04:01:09;1.70;;;0.90;;
35909;SDS011;22004;49.120;-0.200;2022-09-17T04:03:35;1.00;;;0.68;;
35909;SDS011;22004;49.120;-0.200;2022-09-17T04:06:00;1.05;;;0.68;;
35909;SDS011;22004;49.120;-0.200;2022-09-17T04:08:26;2.75;;;1.10;;
35909;SDS011;22004;49.120;-0.200;2022-09-17T04:10:51;3.42;;;0.80;;
35909;SDS011;22004;49.120;-0.200;2022-09-17T04:13:17;1.63;;;0.88;;
35909;SDS011;22004;49.120;-0.200;2022-09-17T04:15:43;2.25;;;0.70;;
35909;SDS011;22004;49.120;-0.200;2022-09-17T04:18:09;3.75;;;0.90;;
35909;SDS011;22004;49.120;-0.200;2022-09-17T04:20:35;1.15;;;0.90;;
35909;SDS011;22004;49.120;-0.200;2022-09-17T04:23:00;0.80;;;0.77;;
35909;SDS011;22004;49.120;-0.200;2022-09-17T04:25:26;2.80;;;0.80;;
35909;SDS011;22004;49.120;-0.200;2022-09-17T04:27:51;1.25;;;0.68;;
35909;SDS011;22004;49.120;-0.200;2022-09-17T04:30:17;3.05;;;0.80;;
35909;SDS011;22004;49.120;-0.200;2022-09-17T04:32:42;2.22;;;0.80;;
35909;SDS011;22004;49.120;-0.200;2022-09-17T04:35:09;2.47;;;0.93;;
35909;SDS011;22004;49.120;-0.200;2022-09-17T04:37:34;2.88;;;1.00;;
35909;SDS011;22004;49.120;-0.200;2022-09-17T04:40:00;1.45;;;0.90;;
35909;SDS011;22004;49.120;-0.200;2022-09-17T04:42:26;1.33;;;0.80;;
35909;SDS011;22004;49.120;-0.200;2022-09-17T04:44:51;1.00;;;0.70;;
35909;SDS011;22004;49.120;-0.200;2022-09-17T04:47:17;2.40;;;1.00;;
35909;SDS011;22004;49.120;-0.200;2022-09-17T04:49:42;1.10;;;0.60;;
35909;SDS011;22004;49.120;-0.200;2022-09-17T04:52:07;1.65;;;0.70;;
35909;SDS011;22004;49.120;-0.200;2022-09-17T04:54:33;2.58;;;0.70;;
35909;SDS011;22004;49.120;-0.200;2022-09-17T04:56:58;2.92;;;0.60;;
35909;SDS011;22004;49.120;-0.200;2022-09-17T04:59:24;2.28;;;0.65;;
35909;SDS011;22004;49.120;-0.200;2022-09-17T05:01:50;4.50;;;0.80;;
35909;SDS011;22004;49.120;-0.200;2022-09-17T05:04:15;2.38;;;1.15;;
35909;SDS011;22004;49.120;-0.200;2022-09-17T05:06:41;2.17;;;1.10;;
35909;SDS011;22004;49.120;-0.200;2022-09-17T05:09:06;1.30;;;0.93;;
35909;SDS011;22004;49.120;-0.200;2022-09-17T05:11:32;1.70;;;0.77;;
35909;SDS011;22004;49.120;-0.200;2022-09-17T05:13:57;2.25;;;0.88;;
35909;SDS011;22004;49.120;-0.200;2022-09-17T05:16:22;1.17;;;0.90;;
35909;SDS011;22004;49.120;-0.200;2022-09-17T05:18:48;1.33;;;0.90;;
35909;SDS011;22004;49.120;-0.200;2022-09-17T05:21:15;2.47;;;0.80;;
35909;SDS011;22004;49.120;-0.200;2022-09-17T05:23:41;2.92;;;0.80;;
35909;SDS011;22004;49.120;-0.200;2022-09-17T05:26:06;1.65;;;0.80;;
35909;SDS011;22004;49.120;-0.200;2022-09-17T05:28:32;0.90;;;0.70;;
35909;SDS011;22004;49.120;-0.200;2022-09-17T05:30:58;1.40;;;0.85;;
35909;SDS011;22004;49.120;-0.200;2022-09-17T05:33:24;3.90;;;1.02;;
35909;SDS011;22004;49.120;-0.200;2022-09-17T05:35:49;2.50;;;0.93;;
35909;SDS011;22004;49.120;-0.200;2022-09-17T05:38:15;1.42;;;0.90;;
35909;SDS011;22004;49.120;-0.200;2022-09-17T05:40:42;1.80;;;0.98;;
35909;SDS011;22004;49.120;-0.200;2022-09-17T05:43:08;1.73;;;1.08;;
35909;SDS011;22004;49.120;-0.200;2022-09-17T05:45:33;0.95;;;0.70;;
35909;SDS011;22004;49.120;-0.200;2022-09-17T05:48:00;1.05;;;0.77;;
35909;SDS011;22004;49.120;-0.200;2022-09-17T05:50:27;2.60;;;0.70;;
35909;SDS011;22004;49.120;-0.200;2022-09-17T05:52:53;1.38;;;0.77;;
35909;SDS011;22004;49.120;-0.200;2022-09-17T05:55:19;1.35;;;0.63;;
35909;SDS011;22004;49.120;-0.200;2022-09-17T05:57:46;1.40;;;0.70;;
35909;SDS011;22004;49.120;-0.200;2022-09-17T06:00:12;0.90;;;0.77;;
35909;SDS011;22004;49.120;-0.200;2022-09-17T06:02:38;1.13;;;0.70;;
35909;SDS011;22004;49.120;-0.200;2022-09-17T06:05:04;4.88;;;0.90;;
35909;SDS011;22004;49.120;-0.200;2022-09-17T06:07:29;0.82;;;0.70;;
35909;SDS011;22004;49.120;-0.200;2022-09-17T06:09:55;1.60;;;0.68;;
35909;SDS011;22004;49.120;-0.200;2022-09-17T06:12:20;2.13;;;0.70;;
35909;SDS011;22004;49.120;-0.200;2022-09-17T06:14:46;0.65;;;0.65;;
35909;SDS011;22004;49.120;-0.200;2022-09-17T06:17:11;1.50;;;0.70;;
35909;SDS011;22004;49.120;-0.200;2022-09-17T06:19:37;1.60;;;0.90;;
35909;SDS011;22004;49.120;-0.200;2022-09-17T06:22:02;3.30;;;0.70;;
35909;SDS011;22004;49.120;-0.200;2022-09-17T06:24:29;1.73;;;0.90;;
35909;SDS011;22004;49.120;-0.200;2022-09-17T06:26:55;4.43;;;0.90;;
35909;SDS011;22004;49.120;-0.200;2022-09-17T06:29:21;2.80;;;0.60;;
35909;SDS011;22004;49.120;-0.200;2022-09-17T06:31:46;1.45;;;0.73;;
35909;SDS011;22004;49.120;-0.200;2022-09-17T06:34:12;0.70;;;0.70;;
35909;SDS011;22004;49.120;-0.200;2022-09-17T06:36:38;1.98;;;0.88;;
35909;SDS011;22004;49.120;-0.200;2022-09-17T06:39:03;2.58;;;0.80;;
35909;SDS011;22004;49.120;-0.200;2022-09-17T06:41:29;4.35;;;0.90;;
35909;SDS011;22004;49.120;-0.200;2022-09-17T06:43:54;1.73;;;0.73;;
35909;SDS011;22004;49.120;-0.200;2022-09-17T06:46:20;2.85;;;1.20;;
35909;SDS011;22004;49.120;-0.200;2022-09-17T06:48:45;2.10;;;0.75;;
35909;SDS011;22004;49.120;-0.200;2022-09-17T06:51:11;1.88;;;0.90;;
35909;SDS011;22004;49.120;-0.200;2022-09-17T06:53:36;1.55;;;1.00;;
35909;SDS011;22004;49.120;-0.200;2022-09-17T06:56:03;1.60;;;0.60;;
35909;SDS011;22004;49.120;-0.200;2022-09-17T06:58:30;2.80;;;1.25;;
35909;SDS011;22004;49.120;-0.200;2022-09-17T07:00:59;2.05;;;0.80;;
35909;SDS011;22004;49.120;-0.200;2022-09-17T07:03:25;1.75;;;0.82;;
35909;SDS011;22004;49.120;-0.200;2022-09-17T07:05:51;2.67;;;0.95;;
35909;SDS011;22004;49.120;-0.200;2022-09-17T07:08:17;1.63;;;0.90;;
35909;SDS011;22004;49.120;-0.200;2022-09-17T07:10:42;2.03;;;0.95;;
35909;SDS011;22004;49.120;-0.200;2022-09-17T07:13:08;3.42;;;0.82;;
35909;SDS011;22004;49.120;-0.200;2022-09-17T07:15:33;1.17;;;0.98;;
35909;SDS011;22004;49.120;-0.200;2022-09-17T07:17:58;2.67;;;1.20;;
35909;SDS011;22004;49.120;-0.200;2022-09-17T07:20:26;8.32;;;1.10;;
35909;SDS011;22004;49.120;-0.200;2022-09-17T07:22:55;4.40;;;1.00;;
35909;SDS011;22004;49.120;-0.200;2022-09-17T07:25:21;4.85;;;1.08;;
35909;SDS011;22004;49.120;-0.200;2022-09-17T07:27:48;2.22;;;0.85;;
35909;SDS011;22004;49.120;-0.200;2022-09-17T07:30:13;9.48;;;1.38;;
35909;SDS011;22004;49.120;-0.200;2022-09-17T07:32:39;2.67;;;1.15;;
35909;SDS011;22004;49.120;-0.200;2022-09-17T07:35:06;3.38;;;1.00;;
35909;SDS011;22004;49.120;-0.200;2022-09-17T07:37:31;2.10;;;0.80;;
35909;SDS011;22004;49.120;-0.200;2022-09-17T07:39:56;1.17;;;0.80;;
35909;SDS011;22004;49.120;-0.200;2022-09-17T07:42:22;2.35;;;1.00;;
35909;SDS011;22004;49.120;-0.200;2022-09-17T07:44:47;1.75;;;0.80;;
35909;SDS011;22004;49.120;-0.200;2022-09-17T07:47:12;2.53;;;0.90;;
35909;SDS011;22004;49.120;-0.200;2022-09-17T07:49:38;6.85;;;1.10;;
35909;SDS011;22004;49.120;-0.200;2022-09-17T07:52:03;1.35;;;0.75;;
35909;SDS011;22004;49.120;-0.200;2022-09-17T07:54:33;1.52;;;0.70;;
35909;SDS011;22004;49.120;-0.200;2022-09-17T07:57:00;2.33;;;0.90;;
35909;SDS011;22004;49.120;-0.200;2022-09-17T07:59:26;5.43;;;0.90;;
35909;SDS011;22004;49.120;-0.200;2022-09-17T08:01:51;1.60;;;0.80;;
35909;SDS011;22004;49.120;-0.200;2022-09-17T08:04:17;4.60;;;1.13;;
35909;SDS011;22004;49.120;-0.200;2022-09-17T08:06:42;3.15;;;1.23;;
35909;SDS011;22004;49.120;-0.200;2022-09-17T08:09:08;4.72;;;0.90;;
35909;SDS011;22004;49.120;-0.200;2022-09-17T08:11:35;1.10;;;0.80;;
35909;SDS011;22004;49.120;-0.200;2022-09-17T08:14:00;1.48;;;0.60;;
35909;SDS011;22004;49.120;-0.200;2022-09-17T08:16:26;4.07;;;1.10;;
35909;SDS011;22004;49.120;-0.200;2022-09-17T08:18:55;3.95;;;1.20;;
35909;SDS011;22004;49.120;-0.200;2022-09-17T08:21:21;1.48;;;0.80;;
35909;SDS011;22004;49.120;-0.200;2022-09-17T08:23:47;2.88;;;0.88;;
35909;SDS011;22004;49.120;-0.200;2022-09-17T08:26:13;7.18;;;0.90;;
35909;SDS011;22004;49.120;-0.200;2022-09-17T08:28:43;2.33;;;0.85;;
35909;SDS011;22004;49.120;-0.200;2022-09-17T08:31:10;3.63;;;0.98;;
35909;SDS011;22004;49.120;-0.200;2022-09-17T08:33:36;4.00;;;0.82;;
35909;SDS011;22004;49.120;-0.200;2022-09-17T08:36:03;1.73;;;0.77;;
35909;SDS011;22004;49.120;-0.200;2022-09-17T08:38:31;8.38;;;1.40;;
35909;SDS011;22004;49.120;-0.200;2022-09-17T08:46:09;4.63;;;0.80;;
35909;SDS011;22004;49.120;-0.200;2022-09-17T08:48:46;2.85;;;1.08;;
35909;SDS011;22004;49.120;-0.200;2022-09-17T08:56:20;8.20;;;1.30;;
35909;SDS011;22004;49.120;-0.200;2022-09-17T08:58:55;4.05;;;1.10;;
35909;SDS011;22004;49.120;-0.200;2022-09-17T09:07:09;1.25;;;0.85;;
35909;SDS011;22004;49.120;-0.200;2022-09-17T09:09:40;3.47;;;0.70;;
35909;SDS011;22004;49.120;-0.200;2022-09-17T09:12:14;4.25;;;0.80;;
35909;SDS011;22004;49.120;-0.200;2022-09-17T09:14:56;3.50;;;0.73;;
35909;SDS011;22004;49.120;-0.200;2022-09-17T09:17:27;3.30;;;0.77;;
35909;SDS011;22004;49.120;-0.200;2022-09-17T09:19:57;1.42;;;0.57;;
35909;SDS011;22004;49.120;-0.200;2022-09-17T09:25:17;3.00;;;0.90;;
35909;SDS011;22004;49.120;-0.200;2022-09-17T09:30:21;1.63;;;0.60;;
35909;SDS011;22004;49.120;-0.200;2022-09-17T09:33:08;1.70;;;0.60;;
35909;SDS011;22004;49.120;-0.200;2022-09-17T09:35:40;2.72;;;0.70;;
35909;SDS011;22004;49.120;-0.200;2022-09-17T09:40:36;2.83;;;1.00;;
35909;SDS011;22004;49.120;-0.200;2022-09-17T09:48:41;3.60;;;1.05;;
35909;SDS011;22004;49.120;-0.200;2022-09-17T09:59:22;2.95;;;0.80;;
35909;SDS011;22004;49.120;-0.200;2022-09-17T10:01:47;1.67;;;0.68;;
35909;SDS011;22004;49.120;-0.200;2022-09-17T10:06:40;4.78;;;0.70;;
35909;SDS011;22004;49.120;-0.200;2022-09-17T10:11:31;3.60;;;0.60;;
35909;SDS011;22004;49.120;-0.200;2022-09-17T10:16:49;4.93;;;0.60;;
35909;SDS011;22004;49.120;-0.200;2022-09-17T10:19:33;6.78;;;0.68;;
35909;SDS011;22004;49.120;-0.200;2022-09-17T10:21:58;1.73;;;0.50;;
35909;SDS011;22004;49.120;-0.200;2022-09-17T10:24:44;3.25;;;1.10;;
35909;SDS011;22004;49.120;-0.200;2022-09-17T10:27:12;1.67;;;0.70;;
35909;SDS011;22004;49.120;-0.200;2022-09-17T10:29:41;1.67;;;0.65;;
35909;SDS011;22004;49.120;-0.200;2022-09-17T10:32:13;1.33;;;0.65;;
35909;SDS011;22004;49.120;-0.200;2022-09-17T10:34:40;3.80;;;0.77;;
35909;SDS011;22004;49.120;-0.200;2022-09-17T10:42:43;2.20;;;0.65;;
35909;SDS011;22004;49.120;-0.200;2022-09-17T10:47:50;1.98;;;0.57;;
35909;SDS011;22004;49.120;-0.200;2022-09-17T10:50:17;8.52;;;0.50;;
35909;SDS011;22004;49.120;-0.200;2022-09-17T10:52:48;2.08;;;0.95;;
35909;SDS011;22004;49.120;-0.200;2022-09-17T11:09:22;1.35;;;0.55;;
35909;SDS011;22004;49.120;-0.200;2022-09-17T11:12:01;2.30;;;0.70;;
35909;SDS011;22004;49.120;-0.200;2022-09-17T11:26:47;1.33;;;0.50;;
35909;SDS011;22004;49.120;-0.200;2022-09-17T11:37:27;3.22;;;0.70;;
35909;SDS011;22004;49.120;-0.200;2022-09-17T11:42:48;0.50;;;0.30;;
35909;SDS011;22004;49.120;-0.200;2022-09-17T11:45:35;0.90;;;0.40;;
35909;SDS011;22004;49.120;-0.200;2022-09-17T11:48:05;2.17;;;0.40;;
35909;SDS011;22004;49.120;-0.200;2022-09-17T11:50:46;0.85;;;0.50;;
35909;SDS011;22004;49.120;-0.200;2022-09-17T11:58:32;3.25;;;0.70;;
35909;SDS011;22004;49.120;-0.200;2022-09-17T12:01:05;1.27;;;0.50;;
35909;SDS011;22004;49.120;-0.200;2022-09-17T12:03:51;1.75;;;0.50;;
35909;SDS011;22004;49.120;-0.200;2022-09-17T12:06:45;0.80;;;0.70;;
35909;SDS011;22004;49.120;-0.200;2022-09-17T12:09:21;1.05;;;0.40;;
35909;SDS011;22004;49.120;-0.200;2022-09-17T12:12:01;0.70;;;0.50;;
35909;SDS011;22004;49.120;-0.200;2022-09-17T12:14:53;2.30;;;0.60;;
35909;SDS011;22004;49.120;-0.200;2022-09-17T12:17:25;5.72;;;0.60;;
35909;SDS011;22004;49.120;-0.200;2022-09-17T12:20:02;1.15;;;0.43;;
35909;SDS011;22004;49.120;-0.200;2022-09-17T12:22:34;1.83;;;0.55;;
35909;SDS011;22004;49.120;-0.200;2022-09-17T12:25:09;1.83;;;0.60;;
35909;SDS011;22004;49.120;-0.200;2022-09-17T12:52:45;2.85;;;0.52;;
35909;SDS011;22004;49.120;-0.200;2022-09-17T13:00:44;2.58;;;0.80;;
35909;SDS011;22004;49.120;-0.200;2022-09-17T13:03:18;1.08;;;0.40;;
35909;SDS011;22004;49.120;-0.200;2022-09-17T13:12:11;0.75;;;0.50;;
35909;SDS011;22004;49.120;-0.200;2022-09-17T13:17:11;3.33;;;0.52;;
35909;SDS011;22004;49.120;-0.200;2022-09-17T13:22:19;1.08;;;0.40;;
35909;SDS011;22004;49.120;-0.200;2022-09-17T13:24:47;1.90;;;0.60;;
35909;SDS011;22004;49.120;-0.200;2022-09-17T13:27:27;3.03;;;0.47;;
35909;SDS011;22004;49.120;-0.200;2022-09-17T13:37:30;1.25;;;0.60;;
35909;SDS011;22004;49.120;-0.200;2022-09-17T13:39:57;5.10;;;0.60;;
35909;SDS011;22004;49.120;-0.200;2022-09-17T13:42:27;3.42;;;0.63;;
35909;SDS011;22004;49.120;-0.200;2022-09-17T13:45:08;2.75;;;0.57;;
35909;SDS011;22004;49.120;-0.200;2022-09-17T13:47:35;2.70;;;0.63;;
35909;SDS011;22004;49.120;-0.200;2022-09-17T13:50:08;2.67;;;0.90;;
35909;SDS011;22004;49.120;-0.200;2022-09-17T13:52:45;1.13;;;0.57;;
35909;SDS011;22004;49.120;-0.200;2022-09-17T13:55:34;2.25;;;0.55;;
35909;SDS011;22004;49.120;-0.200;2022-09-17T13:58:02;3.47;;;0.60;;
35909;SDS011;22004;49.120;-0.200;2022-09-17T14:18:58;1.85;;;0.60;;
35909;SDS011;22004;49.120;-0.200;2022-09-17T14:21:27;0.77;;;0.45;;
35909;SDS011;22004;49.120;-0.200;2022-09-17T14:24:00;3.72;;;0.40;;
35909;SDS011;22004;49.120;-0.200;2022-09-17T14:31:48;1.83;;;0.40;;
35909;SDS011;22004;49.120;-0.200;2022-09-17T14:34:23;3.05;;;0.50;;
35909;SDS011;22004;49.120;-0.200;2022-09-17T14:36:50;0.85;;;0.52;;
35909;SDS011;22004;49.120;-0.200;2022-09-17T14:39:21;1.25;;;0.35;;
35909;SDS011;22004;49.120;-0.200;2022-09-17T14:41:53;5.30;;;0.77;;
35909;SDS011;22004;49.120;-0.200;2022-09-17T14:44:21;1.10;;;0.43;;
35909;SDS011;22004;49.120;-0.200;2022-09-17T14:47:05;2.30;;;0.50;;
35909;SDS011;22004;49.120;-0.200;2022-09-17T14:49:38;1.83;;;0.60;;
35909;SDS011;22004;49.120;-0.200;2022-09-17T14:55:15;1.23;;;0.40;;
35909;SDS011;22004;49.120;-0.200;2022-09-17T14:57:53;1.02;;;0.40;;
35909;SDS011;22004;49.120;-0.200;2022-09-17T15:00:34;2.90;;;0.50;;
35909;SDS011;22004;49.120;-0.200;2022-09-17T15:03:02;3.78;;;0.70;;
35909;SDS011;22004;49.120;-0.200;2022-09-17T15:10:34;1.92;;;0.70;;
35909;SDS011;22004;49.120;-0.200;2022-09-17T15:13:03;1.23;;;0.60;;
35909;SDS011;22004;49.120;-0.200;2022-09-17T15:15:28;2.85;;;0.85;;
35909;SDS011;22004;49.120;-0.200;2022-09-17T15:17:54;1.65;;;0.40;;
35909;SDS011;22004;49.120;-0.200;2022-09-17T15:20:23;1.35;;;0.50;;
35909;SDS011;22004;49.120;-0.200;2022-09-17T15:22:55;1.25;;;0.50;;
35909;SDS011;22004;49.120;-0.200;2022-09-17T15:25:44;1.42;;;0.68;;
35909;SDS011;22004;49.120;-0.200;2022-09-17T15:30:49;2.60;;;0.50;;
35909;SDS011;22004;49.120;-0.200;2022-09-17T15:33:15;3.47;;;0.65;;
35909;SDS011;22004;49.120;-0.200;2022-09-17T15:35:56;2.58;;;0.50;;
35909;SDS011;22004;49.120;-0.200;2022-09-17T15:38:26;2.42;;;0.60;;
35909;SDS011;22004;49.120;-0.200;2022-09-17T15:40:53;1.98;;;0.60;;
35909;SDS011;22004;49.120;-0.200;2022-09-17T15:43:28;1.17;;;0.30;;
35909;SDS011;22004;49.120;-0.200;2022-09-17T15:45:55;1.48;;;0.60;;
35909;SDS011;22004;49.120;-0.200;2022-09-17T15:50:57;0.60;;;0.40;;
35909;SDS011;22004;49.120;-0.200;2022-09-17T15:53:24;2.90;;;0.45;;
35909;SDS011;22004;49.120;-0.200;2022-09-17T15:58:51;2.38;;;0.50;;
35909;SDS011;22004;49.120;-0.200;2022-09-17T16:08:53;2.03;;;0.40;;
35909;SDS011;22004;49.120;-0.200;2022-09-17T16:11:22;1.20;;;0.70;;
35909;SDS011;22004;49.120;-0.200;2022-09-17T16:13:49;2.17;;;0.63;;
35909;SDS011;22004;49.120;-0.200;2022-09-17T16:18:56;1.10;;;0.57;;
35909;SDS011;22004;49.120;-0.200;2022-09-17T16:21:22;0.80;;;0.40;;
35909;SDS011;22004;49.120;-0.200;2022-09-17T16:23:47;1.50;;;0.50;;
35909;SDS011;22004;49.120;-0.200;2022-09-17T16:26:22;2.95;;;0.45;;
35909;SDS011;22004;49.120;-0.200;2022-09-17T16:28:53;0.63;;;0.38;;
35909;SDS011;22004;49.120;-0.200;2022-09-17T16:31:23;2.58;;;0.40;;
35909;SDS011;22004;49.120;-0.200;2022-09-17T16:33:50;3.40;;;0.40;;
35909;SDS011;22004;49.120;-0.200;2022-09-17T16:36:15;4.65;;;0.50;;
35909;SDS011;22004;49.120;-0.200;2022-09-17T16:38:41;3.38;;;0.50;;
35909;SDS011;22004;49.120;-0.200;2022-09-17T16:41:06;1.85;;;0.43;;
35909;SDS011;22004;49.120;-0.200;2022-09-17T16:43:32;3.03;;;0.50;;
35909;SDS011;22004;49.120;-0.200;2022-09-17T16:46:02;1.05;;;0.40;;
35909;SDS011;22004;49.120;-0.200;2022-09-17T16:48:29;1.20;;;0.40;;
35909;SDS011;22004;49.120;-0.200;2022-09-17T16:50:55;3.05;;;0.50;;
35909;SDS011;22004;49.120;-0.200;2022-09-17T16:53:21;3.60;;;0.80;;
35909;SDS011;22004;49.120;-0.200;2022-09-17T16:55:46;3.75;;;0.60;;
35909;SDS011;22004;49.120;-0.200;2022-09-17T16:58:11;1.83;;;0.60;;
35909;SDS011;22004;49.120;-0.200;2022-09-17T17:00:37;1.70;;;0.40;;
35909;SDS011;22004;49.120;-0.200;2022-09-17T17:03:02;2.35;;;0.50;;
35909;SDS011;22004;49.120;-0.200;2022-09-17T17:05:28;1.58;;;0.52;;
35909;SDS011;22004;49.120;-0.200;2022-09-17T17:07:55;1.10;;;0.38;;
35909;SDS011;22004;49.120;-0.200;2022-09-17T17:10:21;1.23;;;0.50;;
35909;SDS011;22004;49.120;-0.200;2022-09-17T17:12:48;1.20;;;0.60;;
35909;SDS011;22004;49.120;-0.200;2022-09-17T17:15:13;1.02;;;0.45;;
35909;SDS011;22004;49.120;-0.200;2022-09-17T17:17:39;0.85;;;0.38;;
35909;SDS011;22004;49.120;-0.200;2022-09-17T17:20:05;1.58;;;0.50;;
35909;SDS011;22004;49.120;-0.200;2022-09-17T17:22:37;0.88;;;0.45;;
35909;SDS011;22004;49.120;-0.200;2022-09-17T17:25:07;0.88;;;0.40;;
35909;SDS011;22004;49.120;-0.200;2022-09-17T17:27:33;1.20;;;0.40;;
35909;SDS011;22004;49.120;-0.200;2022-09-17T17:29:59;0.90;;;0.30;;
35909;SDS011;22004;49.120;-0.200;2022-09-17T17:32:30;3.03;;;0.60;;
35909;SDS011;22004;49.120;-0.200;2022-09-17T17:34:59;2.30;;;0.50;;
35909;SDS011;22004;49.120;-0.200;2022-09-17T17:37:25;1.10;;;0.45;;
35909;SDS011;22004;49.120;-0.200;2022-09-17T17:39:51;4.03;;;0.50;;
35909;SDS011;22004;49.120;-0.200;2022-09-17T17:42:17;0.85;;;0.40;;
35909;SDS011;22004;49.120;-0.200;2022-09-17T17:44:42;2.00;;;0.50;;
35909;SDS011;22004;49.120;-0.200;2022-09-17T17:47:08;1.95;;;0.50;;
35909;SDS011;22004;49.120;-0.200;2022-09-17T17:49:33;0.88;;;0.40;;
35909;SDS011;22004;49.120;-0.200;2022-09-17T17:51:58;2.50;;;0.68;;
35909;SDS011;22004;49.120;-0.200;2022-09-17T17:54:24;2.28;;;0.40;;
35909;SDS011;22004;49.120;-0.200;2022-09-17T17:56:52;1.25;;;0.55;;
35909;SDS011;22004;49.120;-0.200;2022-09-17T17:59:18;1.95;;;0.40;;
35909;SDS011;22004;49.120;-0.200;2022-09-17T18:01:43;2.97;;;0.50;;
35909;SDS011;22004;49.120;-0.200;2022-09-17T18:04:08;4.25;;;0.52;;
35909;SDS011;22004;49.120;-0.200;2022-09-17T18:06:34;1.63;;;0.60;;
35909;SDS011;22004;49.120;-0.200;2022-09-17T18:08:59;1.15;;;0.50;;
35909;SDS011;22004;49.120;-0.200;2022-09-17T18:11:25;4.18;;;0.47;;
35909;SDS011;22004;49.120;-0.200;2022-09-17T18:13:52;1.38;;;0.40;;
35909;SDS011;22004;49.120;-0.200;2022-09-17T18:16:19;2.47;;;0.52;;
35909;SDS011;22004;49.120;-0.200;2022-09-17T18:18:45;0.40;;;0.40;;
35909;SDS011;22004;49.120;-0.200;2022-09-17T18:21:18;1.13;;;0.50;;
35909;SDS011;22004;49.120;-0.200;2022-09-17T18:23:46;1.27;;;0.60;;
35909;SDS011;22004;49.120;-0.200;2022-09-17T18:26:13;1.85;;;0.57;;
35909;SDS011;22004;49.120;-0.200;2022-09-17T18:28:40;1.52;;;0.50;;
35909;SDS011;22004;49.120;-0.200;2022-09-17T18:31:06;0.98;;;0.40;;
35909;SDS011;22004;49.120;-0.200;2022-09-17T18:34:02;1.00;;;0.60;;
35909;SDS011;22004;49.120;-0.200;2022-09-17T18:36:32;1.08;;;0.50;;
35909;SDS011;22004;49.120;-0.200;2022-09-17T18:39:00;0.95;;;0.52;;
35909;SDS011;22004;49.120;-0.200;2022-09-17T18:41:28;0.73;;;0.40;;
35909;SDS011;22004;49.120;-0.200;2022-09-17T18:43:54;2.05;;;0.70;;